Time;durP1;ratioP1;P1;durP2;ratioP2;P2;SDS_P1;SDS_P2;PMS_P1;PMS_P2;Temp;Humidity;BMP_temperature;BMP_pressure;BME280_temperature;BME280_humidity;BME280_pressure;Samples;Min_cycle;Max_cycle;Signal;HPM_P1;HPM_P2
2023/07/11 00:00:09;;;;;;;2.47;1.42;;;;;;;;;;5039822;28;20044;-86
2023/07/11 00:02:35;;;;;;;4.28;1.65;;;;;;;;;;5044447;28;20053;-87
2023/07/11 00:05:02;;;;;;;2.03;0.95;;;;;;;;;;5041960;28;20095;-86
2023/07/11 00:07:28;;;;;;;1.25;0.90;;;;;;;;;;5042300;28;20033;-86
2023/07/11 00:09:54;;;;;;;2.95;1.08;;;;;;;;;;5045870;28;20041;-86
2023/07/11 00:12:20;;;;;;;4.90;1.80;;;;;;;;;;5040458;28;20069;-86
2023/07/11 00:14:47;;;;;;;4.00;1.30;;;;;;;;;;5045318;28;20124;-86
2023/07/11 00:17:13;;;;;;;2.03;1.27;;;;;;;;;;5044444;28;20482;-86
2023/07/11 00:19:47;;;;;;;3.00;1.10;;;;;;;;;;5047420;28;20040;-87
2023/07/11 00:22:13;;;;;;;2.95;1.05;;;;;;;;;;5040735;28;20055;-87
2023/07/11 00:24:39;;;;;;;2.08;1.40;;;;;;;;;;5043942;28;20382;-88
2023/07/11 00:27:05;;;;;;;1.77;1.30;;;;;;;;;;5043098;28;20041;-86
2023/07/11 00:29:31;;;;;;;2.67;1.52;;;;;;;;;;5047083;28;21601;-87
2023/07/11 00:31:57;;;;;;;1.88;1.45;;;;;;;;;;5051777;28;20044;-87
2023/07/11 00:34:23;;;;;;;1.88;1.38;;;;;;;;;;5047263;28;20049;-86
2023/07/11 00:36:49;;;;;;;5.78;1.30;;;;;;;;;;5042904;28;20099;-85
2023/07/11 00:39:16;;;;;;;2.33;1.58;;;;;;;;;;5044447;28;20049;-87
2023/07/11 00:41:42;;;;;;;1.98;0.93;;;;;;;;;;5046908;28;20048;-86
2023/07/11 00:44:15;;;;;;;2.13;1.10;;;;;;;;;;5047517;28;20392;-86
2023/07/11 00:46:42;;;;;;;2.25;1.20;;;;;;;;;;5048582;28;20044;-86
2023/07/11 00:49:09;;;;;;;1.23;0.82;;;;;;;;;;5035097;28;20041;-87
2023/07/11 00:51:43;;;;;;;2.60;1.20;;;;;;;;;;5047760;28;20119;-87
2023/07/11 00:54:11;;;;;;;1.40;1.10;;;;;;;;;;5048197;28;20052;-87
2023/07/11 00:56:39;;;;;;;4.65;1.40;;;;;;;;;;5048714;28;20045;-87
2023/07/11 00:59:05;;;;;;;2.53;1.00;;;;;;;;;;5049913;28;20122;-85
2023/07/11 01:01:32;;;;;;;2.53;1.33;;;;;;;;;;5051540;28;20071;-83
2023/07/11 01:03:58;;;;;;;2.67;1.10;;;;;;;;;;5052494;28;20140;-86
2023/07/11 01:06:27;;;;;;;1.63;0.93;;;;;;;;;;5049445;28;20053;-86
2023/07/11 01:08:54;;;;;;;3.03;1.10;;;;;;;;;;5042630;28;20044;-86
2023/07/11 01:11:24;;;;;;;1.63;0.93;;;;;;;;;;5046586;28;20136;-86
2023/07/11 01:13:50;;;;;;;2.08;1.20;;;;;;;;;;5046180;28;20067;-86
2023/07/11 01:16:16;;;;;;;3.22;1.10;;;;;;;;;;5049430;28;20710;-85
2023/07/11 01:18:42;;;;;;;3.63;1.02;;;;;;;;;;5026524;28;20049;-86
2023/07/11 01:21:09;;;;;;;1.92;1.05;;;;;;;;;;5050184;28;20033;-86
2023/07/11 01:23:35;;;;;;;2.47;1.13;;;;;;;;;;5043520;28;20485;-86
2023/07/11 01:26:02;;;;;;;2.15;0.95;;;;;;;;;;5051611;28;20061;-86
2023/07/11 01:28:28;;;;;;;1.25;1.00;;;;;;;;;;5044863;28;20127;-85
2023/07/11 01:30:54;;;;;;;1.58;0.80;;;;;;;;;;5045115;28;20037;-86
2023/07/11 01:33:24;;;;;;;2.90;0.90;;;;;;;;;;5051232;28;20056;-86
2023/07/11 01:35:50;;;;;;;2.88;1.00;;;;;;;;;;5048000;28;20041;-86
2023/07/11 01:38:17;;;;;;;1.17;0.82;;;;;;;;;;5046472;28;20045;-87
2023/07/11 01:40:43;;;;;;;3.17;1.30;;;;;;;;;;5046524;28;20365;-86
2023/07/11 01:43:09;;;;;;;2.97;1.25;;;;;;;;;;5052053;28;20045;-86
2023/07/11 01:45:36;;;;;;;1.27;0.95;;;;;;;;;;5042380;28;20044;-85
2023/07/11 01:48:02;;;;;;;2.83;1.33;;;;;;;;;;5044670;28;20041;-86
2023/07/11 01:50:28;;;;;;;2.60;1.35;;;;;;;;;;5046359;28;20087;-86
2023/07/11 01:52:54;;;;;;;1.85;1.17;;;;;;;;;;5046537;28;20044;-86
2023/07/11 01:55:20;;;;;;;2.85;1.23;;;;;;;;;;5055655;28;20120;-85
2023/07/11 01:57:46;;;;;;;2.25;1.48;;;;;;;;;;5048545;28;20079;-86
2023/07/11 02:00:12;;;;;;;3.20;1.45;;;;;;;;;;5045107;28;20076;-85
2023/07/11 02:02:38;;;;;;;4.10;1.52;;;;;;;;;;5045227;28;20041;-86
2023/07/11 02:05:04;;;;;;;2.17;1.30;;;;;;;;;;5048402;28;20476;-86
2023/07/11 02:07:31;;;;;;;3.22;1.45;;;;;;;;;;5046247;28;20091;-86
2023/07/11 02:09:57;;;;;;;2.75;1.30;;;;;;;;;;5046374;28;20439;-86
2023/07/11 02:12:23;;;;;;;2.35;1.30;;;;;;;;;;5043713;28;20061;-85
2023/07/11 02:14:49;;;;;;;2.65;1.40;;;;;;;;;;5042306;28;20084;-85
2023/07/11 02:17:15;;;;;;;1.50;1.10;;;;;;;;;;5047717;28;20049;-85
2023/07/11 02:19:41;;;;;;;3.05;1.70;;;;;;;;;;5047340;28;20529;-86
2023/07/11 02:22:08;;;;;;;2.67;1.40;;;;;;;;;;5044268;28;20045;-86
2023/07/11 02:24:34;;;;;;;2.60;1.70;;;;;;;;;;5046413;28;20063;-86
2023/07/11 02:27:00;;;;;;;1.73;1.50;;;;;;;;;;5048890;28;20080;-86
2023/07/11 02:29:26;;;;;;;5.35;1.63;;;;;;;;;;5047469;28;20109;-86
2023/07/11 02:31:52;;;;;;;1.50;1.30;;;;;;;;;;5046299;28;20048;-86
2023/07/11 02:34:18;;;;;;;3.60;1.60;;;;;;;;;;5052170;28;20040;-85
2023/07/11 02:36:44;;;;;;;2.90;1.45;;;;;;;;;;5046987;28;20117;-85
2023/07/11 02:39:11;;;;;;;3.45;1.50;;;;;;;;;;5051337;28;20551;-85
2023/07/11 02:41:37;;;;;;;2.10;1.50;;;;;;;;;;5040741;28;20049;-86
2023/07/11 02:44:04;;;;;;;3.40;1.52;;;;;;;;;;5039487;28;20044;-86
2023/07/11 02:46:30;;;;;;;3.70;1.65;;;;;;;;;;5046842;28;20406;-86
2023/07/11 02:48:56;;;;;;;3.75;1.65;;;;;;;;;;5046753;28;20071;-86
2023/07/11 02:51:23;;;;;;;3.25;1.70;;;;;;;;;;5044703;28;20052;-86
2023/07/11 02:53:49;;;;;;;3.55;1.45;;;;;;;;;;5049351;28;20120;-86
2023/07/11 02:56:15;;;;;;;3.47;1.80;;;;;;;;;;5047734;28;20055;-86
2023/07/11 02:58:42;;;;;;;2.50;1.42;;;;;;;;;;5044516;28;20037;-86
2023/07/11 03:01:08;;;;;;;3.58;1.98;;;;;;;;;;5046172;28;20044;-86
2023/07/11 03:03:34;;;;;;;4.38;2.10;;;;;;;;;;5045329;28;20110;-86
2023/07/11 03:06:00;;;;;;;3.60;1.90;;;;;;;;;;5045803;28;20029;-86
2023/07/11 03:08:26;;;;;;;3.72;1.77;;;;;;;;;;5046867;28;20053;-85
2023/07/11 03:10:52;;;;;;;4.50;2.20;;;;;;;;;;5052691;28;20638;-86
2023/07/11 03:13:18;;;;;;;3.92;2.20;;;;;;;;;;5043315;28;20348;-86
2023/07/11 03:15:44;;;;;;;5.63;1.70;;;;;;;;;;5043737;28;20103;-87
2023/07/11 03:18:11;;;;;;;3.80;1.85;;;;;;;;;;5049125;28;20076;-86
2023/07/11 03:20:41;;;;;;;4.82;2.00;;;;;;;;;;5040893;28;20529;-87
2023/07/11 03:23:08;;;;;;;2.53;2.00;;;;;;;;;;5044367;28;20036;-86
2023/07/11 03:25:34;;;;;;;2.80;1.80;;;;;;;;;;5046103;28;20044;-86
2023/07/11 03:28:00;;;;;;;3.13;2.00;;;;;;;;;;5043629;28;20339;-86
2023/07/11 03:30:26;;;;;;;8.30;2.20;;;;;;;;;;5046459;28;20037;-86
2023/07/11 03:32:52;;;;;;;4.30;2.03;;;;;;;;;;5029907;28;20074;-86
2023/07/11 03:35:18;;;;;;;5.00;2.08;;;;;;;;;;5030730;28;20032;-85
2023/07/11 03:37:44;;;;;;;3.95;2.22;;;;;;;;;;5045509;28;20037;-86
2023/07/11 03:40:11;;;;;;;3.22;1.95;;;;;;;;;;5043957;28;20056;-87
2023/07/11 03:42:37;;;;;;;3.95;2.28;;;;;;;;;;5048562;28;20049;-86
2023/07/11 03:45:03;;;;;;;4.03;2.10;;;;;;;;;;5039324;28;20148;-86
2023/07/11 03:47:29;;;;;;;4.57;1.95;;;;;;;;;;5042429;28;20064;-87
2023/07/11 03:49:55;;;;;;;4.88;2.47;;;;;;;;;;5044314;28;20029;-86
2023/07/11 03:52:21;;;;;;;3.95;1.90;;;;;;;;;;5041731;28;20393;-87
2023/07/11 03:54:47;;;;;;;7.07;2.25;;;;;;;;;;5043616;28;20041;-86
2023/07/11 03:57:14;;;;;;;2.88;1.75;;;;;;;;;;5039311;28;20197;-86
2023/07/11 03:59:39;;;;;;;6.90;2.65;;;;;;;;;;5044451;28;20041;-86
2023/07/11 04:02:06;;;;;;;3.80;2.10;;;;;;;;;;5049355;28;20052;-86
2023/07/11 04:04:32;;;;;;;3.28;1.88;;;;;;;;;;5038209;28;20052;-87
2023/07/11 04:06:58;;;;;;;5.25;2.28;;;;;;;;;;5038347;28;20397;-87
2023/07/11 04:09:24;;;;;;;2.67;2.42;;;;;;;;;;5042611;28;20048;-84
2023/07/11 04:11:50;;;;;;;2.75;2.10;;;;;;;;;;5043238;28;20039;-84
2023/07/11 04:14:16;;;;;;;3.47;2.13;;;;;;;;;;5026540;28;20057;-84
2023/07/11 04:16:42;;;;;;;6.03;2.83;;;;;;;;;;5044717;28;20048;-84
2023/07/11 04:19:08;;;;;;;4.15;2.40;;;;;;;;;;5044317;28;20048;-85
2023/07/11 04:21:34;;;;;;;3.55;2.13;;;;;;;;;;5045608;28;20175;-85
2023/07/11 04:24:00;;;;;;;4.90;2.60;;;;;;;;;;5046790;28;20847;-87
2023/07/11 04:26:26;;;;;;;3.35;2.25;;;;;;;;;;5047224;28;20468;-85
2023/07/11 04:28:52;;;;;;;3.47;2.30;;;;;;;;;;5049064;28;20033;-85
2023/07/11 04:31:18;;;;;;;4.28;2.55;;;;;;;;;;5047454;28;20041;-85
2023/07/11 04:33:44;;;;;;;6.05;2.55;;;;;;;;;;5047050;28;20139;-85
2023/07/11 04:36:12;;;;;;;3.55;1.98;;;;;;;;;;5048095;28;20049;-85
2023/07/11 04:38:38;;;;;;;3.00;2.30;;;;;;;;;;5042357;28;20103;-85
2023/07/11 04:41:05;;;;;;;4.60;2.40;;;;;;;;;;5047896;28;20055;-85
2023/07/11 04:43:33;;;;;;;3.55;2.50;;;;;;;;;;5045395;28;20673;-86
2023/07/11 04:45:59;;;;;;;3.67;2.20;;;;;;;;;;5043345;28;20048;-85
2023/07/11 04:48:25;;;;;;;4.82;2.45;;;;;;;;;;5039956;28;20366;-85
2023/07/11 04:51:04;;;;;;;3.88;2.25;;;;;;;;;;5043472;28;20139;-85
2023/07/11 04:53:31;;;;;;;3.75;2.35;;;;;;;;;;5039712;28;20040;-84
2023/07/11 04:55:58;;;;;;;3.83;2.67;;;;;;;;;;5046848;28;20040;-85
2023/07/11 04:58:25;;;;;;;4.68;2.60;;;;;;;;;;5045326;28;20053;-85
2023/07/11 05:00:51;;;;;;;2.75;2.42;;;;;;;;;;5046833;28;20136;-85
2023/07/11 05:03:17;;;;;;;6.82;3.10;;;;;;;;;;5044678;28;20076;-84
2023/07/11 05:05:43;;;;;;;3.58;2.50;;;;;;;;;;5045755;28;20041;-86
2023/07/11 05:08:09;;;;;;;6.05;2.63;;;;;;;;;;5044268;28;20045;-89
2023/07/11 05:10:35;;;;;;;3.78;2.70;;;;;;;;;;5042059;28;20350;-88
2023/07/11 05:13:01;;;;;;;3.75;2.78;;;;;;;;;;5051713;28;20132;-87
2023/07/11 05:15:27;;;;;;;5.30;2.45;;;;;;;;;;5045913;28;20044;-87
2023/07/11 05:17:53;;;;;;;4.15;2.42;;;;;;;;;;5052508;28;20041;-86
2023/07/11 05:20:19;;;;;;;3.90;2.78;;;;;;;;;;5045879;28;20131;-87
2023/07/11 05:22:45;;;;;;;4.43;2.67;;;;;;;;;;5070394;28;20040;-86
2023/07/11 05:25:11;;;;;;;4.68;2.70;;;;;;;;;;5046273;28;20041;-87
2023/07/11 05:27:37;;;;;;;5.72;3.08;;;;;;;;;;5048210;28;20048;-86
2023/07/11 05:30:05;;;;;;;3.20;2.53;;;;;;;;;;5046930;28;20045;-86
2023/07/11 05:32:31;;;;;;;3.30;2.65;;;;;;;;;;5045686;28;20393;-87
2023/07/11 05:34:57;;;;;;;5.25;2.50;;;;;;;;;;5046495;28;20041;-86
2023/07/11 05:37:24;;;;;;;2.78;2.35;;;;;;;;;;5040357;28;20131;-86
2023/07/11 05:39:50;;;;;;;2.78;2.58;;;;;;;;;;5050556;28;20370;-88
2023/07/11 05:42:16;;;;;;;5.68;2.60;;;;;;;;;;5045648;28;20040;-86
2023/07/11 05:44:43;;;;;;;4.95;2.60;;;;;;;;;;5046441;28;20505;-81
2023/07/11 05:47:09;;;;;;;4.32;2.47;;;;;;;;;;5046386;28;20037;-82
2023/07/11 05:49:35;;;;;;;6.13;2.80;;;;;;;;;;5046489;28;20033;-81
2023/07/11 05:52:01;;;;;;;2.88;2.67;;;;;;;;;;5048045;28;20041;-81
2023/07/11 05:54:27;;;;;;;3.70;2.70;;;;;;;;;;5051702;28;20370;-82
2023/07/11 05:56:53;;;;;;;3.85;3.00;;;;;;;;;;5048288;28;20044;-82
2023/07/11 05:59:19;;;;;;;3.90;2.88;;;;;;;;;;5033801;28;20042;-82
2023/07/11 06:01:45;;;;;;;3.92;2.78;;;;;;;;;;5042834;28;20127;-82
2023/07/11 06:04:13;;;;;;;2.97;2.47;;;;;;;;;;5043094;28;20041;-82
2023/07/11 06:06:42;;;;;;;5.72;2.95;;;;;;;;;;5037357;28;20040;-81
2023/07/11 06:09:09;;;;;;;6.18;2.88;;;;;;;;;;5040721;28;20040;-82
2023/07/11 06:11:35;;;;;;;4.53;2.70;;;;;;;;;;5039929;28;20396;-81
2023/07/11 06:14:01;;;;;;;3.33;2.80;;;;;;;;;;5047840;28;20053;-81
2023/07/11 06:16:28;;;;;;;4.13;2.72;;;;;;;;;;5045285;28;20049;-82
2023/07/11 06:18:54;;;;;;;2.95;2.65;;;;;;;;;;5044245;28;20044;-81
2023/07/11 06:21:20;;;;;;;3.13;2.35;;;;;;;;;;5029358;28;20318;-81
2023/07/11 06:23:47;;;;;;;3.10;2.80;;;;;;;;;;5042411;28;20052;-81
2023/07/11 06:26:13;;;;;;;3.28;2.55;;;;;;;;;;5044118;28;20063;-81
2023/07/11 06:28:39;;;;;;;4.82;2.45;;;;;;;;;;5047087;28;20188;-81
2023/07/11 06:31:05;;;;;;;4.10;2.75;;;;;;;;;;5045776;28;20044;-80
2023/07/11 06:33:31;;;;;;;5.57;3.08;;;;;;;;;;5038592;28;20056;-81
2023/07/11 06:35:58;;;;;;;3.35;2.70;;;;;;;;;;5046875;28;20124;-80
2023/07/11 06:38:24;;;;;;;3.63;2.30;;;;;;;;;;5043792;28;20434;-81
2023/07/11 06:40:51;;;;;;;3.80;2.60;;;;;;;;;;5046280;28;20522;-81
2023/07/11 06:43:17;;;;;;;3.92;2.38;;;;;;;;;;5028643;28;20171;-81
2023/07/11 06:45:46;;;;;;;4.30;2.35;;;;;;;;;;5042565;28;20040;-81
2023/07/11 06:48:12;;;;;;;4.32;2.40;;;;;;;;;;5040593;28;20041;-81
2023/07/11 06:50:38;;;;;;;4.53;2.28;;;;;;;;;;5038372;28;20053;-81
2023/07/11 06:53:04;;;;;;;5.50;2.63;;;;;;;;;;5045734;28;20048;-81
2023/07/11 06:55:30;;;;;;;4.20;2.72;;;;;;;;;;5043961;28;20132;-81
2023/07/11 06:57:56;;;;;;;5.00;2.47;;;;;;;;;;5031122;28;20485;-82
2023/07/11 07:00:24;;;;;;;5.10;2.78;;;;;;;;;;5045011;28;20088;-82
2023/07/11 07:02:50;;;;;;;3.72;2.30;;;;;;;;;;5044507;28;20174;-81
2023/07/11 07:05:16;;;;;;;4.68;2.42;;;;;;;;;;5047554;28;20124;-81
2023/07/11 07:07:42;;;;;;;4.68;2.78;;;;;;;;;;5041628;28;20052;-80
2023/07/11 07:10:08;;;;;;;2.97;2.20;;;;;;;;;;5048811;28;20048;-81
2023/07/11 07:12:34;;;;;;;3.95;2.28;;;;;;;;;;5048101;28;20049;-80
2023/07/11 07:15:00;;;;;;;5.35;2.78;;;;;;;;;;5042515;28;20052;-80
2023/07/11 07:17:26;;;;;;;3.55;2.78;;;;;;;;;;5046976;28;20374;-84
2023/07/11 07:19:52;;;;;;;5.55;3.10;;;;;;;;;;5043328;28;20173;-83
2023/07/11 07:22:18;;;;;;;4.35;2.22;;;;;;;;;;5047121;28;20552;-86
2023/07/11 07:24:44;;;;;;;4.93;2.42;;;;;;;;;;5041585;28;20148;-82
2023/07/11 07:27:11;;;;;;;4.43;2.33;;;;;;;;;;5044143;28;20124;-82
2023/07/11 07:29:37;;;;;;;2.35;2.05;;;;;;;;;;5037078;28;20102;-82
2023/07/11 07:32:03;;;;;;;5.25;2.50;;;;;;;;;;5031242;28;20044;-83
2023/07/11 07:34:29;;;;;;;7.30;2.83;;;;;;;;;;5037598;28;20067;-82
2023/07/11 07:36:55;;;;;;;3.05;2.42;;;;;;;;;;5045548;28;20048;-82
2023/07/11 07:39:21;;;;;;;3.72;2.40;;;;;;;;;;5043551;28;20036;-81
2023/07/11 07:41:47;;;;;;;4.55;2.25;;;;;;;;;;5042283;28;20440;-81
2023/07/11 07:44:13;;;;;;;4.60;2.67;;;;;;;;;;5037029;28;20044;-81
2023/07/11 07:46:40;;;;;;;4.25;2.75;;;;;;;;;;5043409;28;20047;-81
2023/07/11 07:49:06;;;;;;;4.50;2.38;;;;;;;;;;5038504;28;20069;-83
2023/07/11 07:51:32;;;;;;;5.90;2.72;;;;;;;;;;5073132;28;20044;-82
2023/07/11 07:53:58;;;;;;;3.30;2.20;;;;;;;;;;5042106;28;20037;-82
2023/07/11 07:56:24;;;;;;;4.00;2.08;;;;;;;;;;5041556;28;20137;-81
2023/07/11 07:58:50;;;;;;;4.45;1.95;;;;;;;;;;5041489;28;20542;-83
2023/07/11 08:01:18;;;;;;;3.90;2.20;;;;;;;;;;5043529;28;20124;-81
2023/07/11 08:03:44;;;;;;;3.53;2.20;;;;;;;;;;5048509;28;20139;-81
2023/07/11 08:06:12;;;;;;;3.50;1.80;;;;;;;;;;5045274;28;20051;-82
2023/07/11 08:08:39;;;;;;;2.80;1.98;;;;;;;;;;5051427;28;20055;-82
2023/07/11 08:11:06;;;;;;;2.70;2.15;;;;;;;;;;5047884;28;20068;-82
2023/07/11 08:13:32;;;;;;;4.20;1.98;;;;;;;;;;5040895;28;20060;-82
2023/07/11 08:15:59;;;;;;;3.25;1.77;;;;;;;;;;5047659;28;20048;-82
2023/07/11 08:18:25;;;;;;;3.78;2.00;;;;;;;;;;5045790;28;20034;-82
2023/07/11 08:20:51;;;;;;;4.00;2.22;;;;;;;;;;5046172;28;20309;-82
2023/07/11 08:23:17;;;;;;;4.93;1.92;;;;;;;;;;5047362;28;20037;-81
2023/07/11 08:25:43;;;;;;;3.05;2.03;;;;;;;;;;5052230;28;20049;-81
2023/07/11 08:28:09;;;;;;;4.38;2.00;;;;;;;;;;5050527;28;20056;-81
2023/07/11 08:30:39;;;;;;;4.25;2.30;;;;;;;;;;5047516;28;20128;-81
2023/07/11 08:33:05;;;;;;;3.17;2.13;;;;;;;;;;5053217;28;20052;-81
2023/07/11 08:35:31;;;;;;;4.40;2.00;;;;;;;;;;5045635;28;20041;-81
2023/07/11 08:37:57;;;;;;;4.97;2.03;;;;;;;;;;5055129;28;20065;-82
2023/07/11 08:40:31;;;;;;;3.42;1.77;;;;;;;;;;5041907;28;20052;-81
2023/07/11 08:42:57;;;;;;;1.60;1.50;;;;;;;;;;5050542;28;20147;-83
2023/07/11 08:45:31;;;;;;;4.25;2.00;;;;;;;;;;5045588;28;20045;-81
2023/07/11 08:48:03;;;;;;;2.70;1.52;;;;;;;;;;5049758;28;20131;-83
2023/07/11 08:50:34;;;;;;;2.55;1.58;;;;;;;;;;5039995;28;20060;-84
2023/07/11 08:53:12;;;;;;;4.20;1.70;;;;;;;;;;5053666;28;20060;-82
2023/07/11 08:55:42;;;;;;;3.15;1.92;;;;;;;;;;5045187;28;20043;-86
2023/07/11 08:58:12;;;;;;;4.57;1.63;;;;;;;;;;5046385;28;20028;-87
2023/07/11 09:00:40;;;;;;;5.47;1.88;;;;;;;;;;5053072;28;20047;-86
2023/07/11 09:03:12;;;;;;;4.68;1.83;;;;;;;;;;5047611;28;20052;-84
2023/07/11 09:05:47;;;;;;;3.65;2.10;;;;;;;;;;5044991;28;20032;-87
2023/07/11 09:08:14;;;;;;;4.50;1.70;;;;;;;;;;5043192;28;20049;-84
2023/07/11 09:10:43;;;;;;;5.70;1.55;;;;;;;;;;5046973;28;20051;-84
2023/07/11 09:13:14;;;;;;;3.85;1.65;;;;;;;;;;5053058;28;20068;-84
2023/07/11 09:15:56;;;;;;;8.70;1.65;;;;;;;;;;5027467;28;20555;-84
2023/07/11 09:18:22;;;;;;;2.38;1.50;;;;;;;;;;5047212;28;20429;-84
2023/07/11 09:20:56;;;;;;;4.68;1.55;;;;;;;;;;5053953;28;20051;-84
2023/07/11 09:23:22;;;;;;;3.20;1.98;;;;;;;;;;5049940;28;20043;-83
2023/07/11 09:25:48;;;;;;;3.33;1.55;;;;;;;;;;5047123;28;20029;-86
2023/07/11 09:28:18;;;;;;;3.58;1.42;;;;;;;;;;5052223;28;20056;-83
2023/07/11 09:30:50;;;;;;;4.50;1.60;;;;;;;;;;5054190;28;20040;-88
2023/07/11 09:33:18;;;;;;;3.60;1.67;;;;;;;;;;5074271;28;20049;-86
2023/07/11 09:35:45;;;;;;;3.28;1.35;;;;;;;;;;5043435;28;20049;-84
2023/07/11 09:38:35;;;;;;;3.00;1.63;;;;;;;;;;5049491;28;20040;-82
2023/07/11 09:41:09;;;;;;;4.13;1.50;;;;;;;;;;5069767;28;20152;-82
2023/07/11 09:43:35;;;;;;;2.42;1.30;;;;;;;;;;5051744;28;20037;-82
2023/07/11 09:46:01;;;;;;;3.58;1.60;;;;;;;;;;5051582;28;20044;-82
2023/07/11 09:48:31;;;;;;;4.15;1.77;;;;;;;;;;5046893;28;20398;-82
2023/07/11 09:51:00;;;;;;;3.30;1.40;;;;;;;;;;5051410;28;20456;-82
2023/07/11 09:53:28;;;;;;;4.32;1.50;;;;;;;;;;5044924;28;20091;-84
2023/07/11 09:55:55;;;;;;;1.20;1.00;;;;;;;;;;5046409;28;20057;-83
2023/07/11 09:58:21;;;;;;;2.20;1.60;;;;;;;;;;5047483;28;20041;-82
2023/07/11 10:00:49;;;;;;;3.45;1.50;;;;;;;;;;5058079;28;20047;-83
2023/07/11 10:03:16;;;;;;;2.08;1.15;;;;;;;;;;5043368;28;20041;-82
2023/07/11 10:05:44;;;;;;;4.03;1.38;;;;;;;;;;5041642;28;20474;-84
2023/07/11 10:08:33;;;;;;;2.60;1.40;;;;;;;;;;5045386;28;20051;-83
2023/07/11 10:11:04;;;;;;;3.90;1.70;;;;;;;;;;5035652;28;20120;-84
2023/07/11 10:13:30;;;;;;;4.90;1.58;;;;;;;;;;5052225;28;20087;-85
2023/07/11 10:15:57;;;;;;;4.88;1.98;;;;;;;;;;5049161;28;20072;-84
2023/07/11 10:18:27;;;;;;;1.70;1.27;;;;;;;;;;5045649;28;20167;-84
2023/07/11 10:20:57;;;;;;;1.92;1.60;;;;;;;;;;5041384;28;20051;-85
2023/07/11 10:23:24;;;;;;;2.58;1.45;;;;;;;;;;5044317;28;20053;-82
2023/07/11 10:26:06;;;;;;;3.20;1.40;;;;;;;;;;5045250;28;20037;-83
2023/07/11 10:28:33;;;;;;;2.58;1.45;;;;;;;;;;5047423;28;20063;-83
2023/07/11 10:31:08;;;;;;;4.43;1.75;;;;;;;;;;5040779;28;20335;-82
2023/07/11 10:33:39;;;;;;;3.80;1.55;;;;;;;;;;5046811;28;20546;-82
2023/07/11 10:36:19;;;;;;;1.65;1.55;;;;;;;;;;5047280;28;20041;-84
2023/07/11 10:38:48;;;;;;;3.45;1.30;;;;;;;;;;5039668;28;20117;-86
2023/07/11 10:41:22;;;;;;;4.95;1.70;;;;;;;;;;5027915;28;20041;-84
2023/07/11 10:43:51;;;;;;;4.85;1.80;;;;;;;;;;5040413;28;20458;-87
2023/07/11 10:46:28;;;;;;;3.72;1.33;;;;;;;;;;5022601;28;20041;-81
2023/07/11 10:48:55;;;;;;;2.00;1.60;;;;;;;;;;5045613;28;20037;-83
2023/07/11 10:51:25;;;;;;;2.95;1.73;;;;;;;;;;5050830;28;20088;-82
2023/07/11 10:54:03;;;;;;;4.40;1.80;;;;;;;;;;5035187;28;20056;-82
2023/07/11 10:56:31;;;;;;;3.30;1.42;;;;;;;;;;5072050;28;20044;-83
2023/07/11 10:58:58;;;;;;;2.63;1.75;;;;;;;;;;5038865;28;20397;-88
2023/07/11 11:01:24;;;;;;;3.20;1.30;;;;;;;;;;5038729;28;20053;-84
2023/07/11 11:03:55;;;;;;;2.92;1.33;;;;;;;;;;5040262;28;20084;-84
2023/07/11 11:06:27;;;;;;;4.03;1.25;;;;;;;;;;5044587;28;20041;-83
2023/07/11 11:08:53;;;;;;;3.42;1.55;;;;;;;;;;5038511;28;20045;-84
2023/07/11 11:11:22;;;;;;;3.40;1.85;;;;;;;;;;5043054;28;20074;-85
2023/07/11 11:13:51;;;;;;;5.82;1.90;;;;;;;;;;5044457;28;20431;-85
2023/07/11 11:16:37;;;;;;;3.08;1.73;;;;;;;;;;5046269;28;20041;-83
2023/07/11 11:19:03;;;;;;;1.90;1.23;;;;;;;;;;5036141;28;20083;-84
2023/07/11 11:21:35;;;;;;;4.28;1.60;;;;;;;;;;5041948;28;20064;-85
2023/07/11 11:24:25;;;;;;;2.72;1.63;;;;;;;;;;5044656;28;20033;-84
2023/07/11 11:27:00;;;;;;;2.42;1.55;;;;;;;;;;5043469;28;20490;-84
2023/07/11 11:29:29;;;;;;;3.42;1.70;;;;;;;;;;5044183;28;20033;-84
2023/07/11 11:32:07;;;;;;;5.03;1.52;;;;;;;;;;5047219;28;20119;-87
2023/07/11 11:34:33;;;;;;;3.20;1.80;;;;;;;;;;5052669;28;20132;-86
2023/07/11 11:37:04;;;;;;;1.85;1.08;;;;;;;;;;5047023;28;20182;-84
2023/07/11 11:39:55;;;;;;;2.53;1.42;;;;;;;;;;5040668;28;20091;-86
2023/07/11 11:42:24;;;;;;;3.15;1.52;;;;;;;;;;5044057;28;20064;-84
2023/07/11 11:44:53;;;;;;;4.07;1.42;;;;;;;;;;5046970;28;20052;-85
2023/07/11 11:47:20;;;;;;;1.77;1.17;;;;;;;;;;5045501;28;20426;-82
2023/07/11 11:49:47;;;;;;;2.42;1.60;;;;;;;;;;5069728;28;20045;-84
2023/07/11 11:52:14;;;;;;;2.45;1.50;;;;;;;;;;5042279;28;20037;-86
2023/07/11 11:54:48;;;;;;;4.20;1.45;;;;;;;;;;5037494;28;20471;-85
2023/07/11 11:57:26;;;;;;;3.78;1.90;;;;;;;;;;5039585;28;20036;-88
2023/07/11 11:59:53;;;;;;;1.80;1.58;;;;;;;;;;5045514;28;20264;-94
2023/07/11 12:02:32;;;;;;;2.72;1.42;;;;;;;;;;5040111;28;20127;-86
2023/07/11 12:05:02;;;;;;;2.92;1.30;;;;;;;;;;5047683;28;20045;-86
2023/07/11 12:07:30;;;;;;;1.48;1.38;;;;;;;;;;5042978;28;20037;-86
2023/07/11 12:09:56;;;;;;;3.25;1.88;;;;;;;;;;5042027;28;20049;-86
2023/07/11 12:12:45;;;;;;;1.83;1.33;;;;;;;;;;5042175;28;20049;-88
2023/07/11 12:15:12;;;;;;;5.13;1.92;;;;;;;;;;5025467;28;20073;-86
2023/07/11 12:17:38;;;;;;;4.07;1.42;;;;;;;;;;5045604;28;20103;-86
2023/07/11 12:20:05;;;;;;;3.38;1.75;;;;;;;;;;5045363;28;20465;-87
2023/07/11 12:22:32;;;;;;;2.50;1.55;;;;;;;;;;5039146;28;20056;-83
2023/07/11 12:25:03;;;;;;;2.67;1.33;;;;;;;;;;5045361;28;20037;-85
2023/07/11 12:27:29;;;;;;;4.32;2.05;;;;;;;;;;5037924;28;20045;-89
2023/07/11 12:29:55;;;;;;;3.28;1.77;;;;;;;;;;5042480;28;20035;-86
2023/07/11 12:32:33;;;;;;;4.45;2.50;;;;;;;;;;5042102;28;20045;-93
2023/07/11 12:35:05;;;;;;;2.08;1.27;;;;;;;;;;5044794;28;20036;-86
2023/07/11 12:37:47;;;;;;;3.08;1.70;;;;;;;;;;5043964;28;20047;-88
2023/07/11 12:40:17;;;;;;;2.45;1.60;;;;;;;;;;5046090;28;20055;-88
2023/07/11 12:42:56;;;;;;;5.20;1.63;;;;;;;;;;5040471;28;20190;-86
2023/07/11 12:45:24;;;;;;;4.70;1.98;;;;;;;;;;5037954;28;20080;-87
2023/07/11 12:47:51;;;;;;;2.30;1.50;;;;;;;;;;5044096;28;20041;-84
2023/07/11 12:50:20;;;;;;;3.03;1.50;;;;;;;;;;5041093;28;20041;-85
2023/07/11 12:52:56;;;;;;;3.50;1.63;;;;;;;;;;5044085;28;20400;-85
2023/07/11 12:55:21;;;;;;;;;;;;;;;;;;5049465;28;20076;-83
2023/07/11 12:57:47;;;;;;;2.22;1.45;;;;;;;;;;5044218;28;19959;-85
2023/07/11 13:00:20;;;;;;;4.45;1.92;;;;;;;;;;5050135;28;20043;-84
2023/07/11 13:02:46;;;;;;;3.45;1.80;;;;;;;;;;5064612;28;20501;-83
2023/07/11 13:05:13;;;;;;;3.33;1.50;;;;;;;;;;5047839;28;20657;-83
2023/07/11 13:07:41;;;;;;;2.75;1.45;;;;;;;;;;5042556;28;20120;-83
2023/07/11 13:10:26;;;;;;;4.78;1.40;;;;;;;;;;5043784;28;20045;-84
2023/07/11 13:12:52;;;;;;;4.72;2.05;;;;;;;;;;5031396;28;20049;-87
2023/07/11 13:15:20;;;;;;;2.90;1.80;;;;;;;;;;5041604;28;20056;-86
2023/07/11 13:17:48;;;;;;;4.57;2.10;;;;;;;;;;5047513;28;20041;-83
2023/07/11 13:20:25;;;;;;;3.88;2.10;;;;;;;;;;5046322;28;20032;-85
2023/07/11 13:22:51;;;;;;;2.10;1.45;;;;;;;;;;5040566;28;20855;-83
2023/07/11 13:25:27;;;;;;;3.42;1.50;;;;;;;;;;5047520;28;20060;-84
2023/07/11 13:27:53;;;;;;;3.70;1.70;;;;;;;;;;5048744;28;20075;-84
2023/07/11 13:30:23;;;;;;;3.88;1.92;;;;;;;;;;5044086;28;20044;-84
2023/07/11 13:32:56;;;;;;;3.35;1.83;;;;;;;;;;5047770;28;20481;-83
2023/07/11 13:35:23;;;;;;;2.25;1.92;;;;;;;;;;5047354;28;20044;-83
2023/07/11 13:37:50;;;;;;;3.72;2.00;;;;;;;;;;5047337;28;20255;-84
2023/07/11 13:40:32;;;;;;;3.90;1.80;;;;;;;;;;5045939;28;20048;-84
2023/07/11 13:42:58;;;;;;;3.53;1.95;;;;;;;;;;5043177;28;20053;-83
2023/07/11 13:45:25;;;;;;;2.45;1.58;;;;;;;;;;5046994;28;20183;-84
2023/07/11 13:47:52;;;;;;;3.47;1.70;;;;;;;;;;5044166;28;20049;-83
2023/07/11 13:50:29;;;;;;;3.85;1.90;;;;;;;;;;5034727;28;20056;-89
2023/07/11 13:52:55;;;;;;;5.13;2.22;;;;;;;;;;5036857;28;20480;-87
2023/07/11 13:55:26;;;;;;;3.33;2.03;;;;;;;;;;5045806;28;20044;-86
2023/07/11 13:57:52;;;;;;;2.13;1.52;;;;;;;;;;5072221;28;20051;-91
2023/07/11 14:00:19;;;;;;;2.88;1.90;;;;;;;;;;5047382;28;20045;-85
2023/07/11 14:02:46;;;;;;;3.17;2.08;;;;;;;;;;5046772;28;20037;-85
2023/07/11 14:05:26;;;;;;;1.83;1.45;;;;;;;;;;5039436;28;20048;-89
2023/07/11 14:07:52;;;;;;;5.75;2.40;;;;;;;;;;5044051;28;20057;-89
2023/07/11 14:10:19;;;;;;;4.57;2.00;;;;;;;;;;5042942;28;20048;-91
2023/07/11 14:12:45;;;;;;;2.28;1.70;;;;;;;;;;5059280;28;20060;-94
2023/07/11 14:15:16;;;;;;;3.00;1.80;;;;;;;;;;5046373;28;20049;-88
2023/07/11 14:17:42;;;;;;;2.55;1.98;;;;;;;;;;5038406;28;20041;-86
2023/07/11 14:20:13;;;;;;;3.83;2.08;;;;;;;;;;5042196;28;20037;-89
2023/07/11 14:22:40;;;;;;;3.22;2.08;;;;;;;;;;5056571;28;20485;-87
2023/07/11 14:25:12;;;;;;;2.55;1.80;;;;;;;;;;5040709;28;20037;-88
2023/07/11 14:27:38;;;;;;;4.80;2.10;;;;;;;;;;5039474;28;20049;-88
2023/07/11 14:30:05;;;;;;;3.90;1.88;;;;;;;;;;5042525;28;20051;-91
2023/07/11 14:32:31;;;;;;;3.38;1.83;;;;;;;;;;5041598;28;20041;-91
2023/07/11 14:34:57;;;;;;;2.13;1.50;;;;;;;;;;5044451;28;20052;-87
2023/07/11 14:37:23;;;;;;;3.92;1.77;;;;;;;;;;5040150;28;20118;-89
2023/07/11 14:39:49;;;;;;;3.22;1.83;;;;;;;;;;5039239;28;20049;-89
2023/07/11 14:42:18;;;;;;;4.05;1.90;;;;;;;;;;5043084;28;20486;-88
2023/07/11 14:44:44;;;;;;;3.95;2.10;;;;;;;;;;5042210;28;20048;-91
2023/07/11 14:47:10;;;;;;;4.45;1.70;;;;;;;;;;5048048;28;20045;-92